sensor_id;sensor_type;location;lat;lon;timestamp;temperature;humidity
67182;DHT22;54114;53.524;49.396;2023-03-21T00:02:13;3.20;78.70
67182;DHT22;54114;53.524;49.396;2023-03-21T00:04:41;3.20;78.60
67182;DHT22;54114;53.524;49.396;2023-03-21T00:07:07;3.10;78.50
67182;DHT22;54114;53.524;49.396;2023-03-21T00:09:34;3.10;78.50
67182;DHT22;54114;53.524;49.396;2023-03-21T00:12:01;3.10;78.50
67182;DHT22;54114;53.524;49.396;2023-03-21T00:14:32;3.00;78.40
67182;DHT22;54114;53.524;49.396;2023-03-21T00:16:59;3.00;78.30
67182;DHT22;54114;53.524;49.396;2023-03-21T00:19:26;3.00;78.40
67182;DHT22;54114;53.524;49.396;2023-03-21T00:21:53;3.00;78.60
67182;DHT22;54114;53.524;49.396;2023-03-21T00:24:21;2.90;78.40
67182;DHT22;54114;53.524;49.396;2023-03-21T00:26:49;2.90;78.50
67182;DHT22;54114;53.524;49.396;2023-03-21T00:29:16;2.90;78.40
67182;DHT22;54114;53.524;49.396;2023-03-21T00:31:43;2.90;78.40
67182;DHT22;54114;53.524;49.396;2023-03-21T00:34:10;2.80;78.30
67182;DHT22;54114;53.524;49.396;2023-03-21T00:36:37;2.80;78.10
67182;DHT22;54114;53.524;49.396;2023-03-21T00:39:04;2.80;78.30
67182;DHT22;54114;53.524;49.396;2023-03-21T00:41:31;2.70;78.20
67182;DHT22;54114;53.524;49.396;2023-03-21T00:43:58;2.70;78.20
67182;DHT22;54114;53.524;49.396;2023-03-21T00:46:24;2.70;78.40
67182;DHT22;54114;53.524;49.396;2023-03-21T00:48:51;2.60;78.50
67182;DHT22;54114;53.524;49.396;2023-03-21T00:51:20;2.70;78.70
67182;DHT22;54114;53.524;49.396;2023-03-21T00:53:57;2.70;78.70
67182;DHT22;54114;53.524;49.396;2023-03-21T00:56:24;2.70;78.60
67182;DHT22;54114;53.524;49.396;2023-03-21T00:58:50;2.70;78.50
67182;DHT22;54114;53.524;49.396;2023-03-21T01:01:17;2.70;78.40
67182;DHT22;54114;53.524;49.396;2023-03-21T01:03:44;2.60;78.40
67182;DHT22;54114;53.524;49.396;2023-03-21T01:06:17;2.70;78.50
67182;DHT22;54114;53.524;49.396;2023-03-21T01:08:45;2.70;78.40
67182;DHT22;54114;53.524;49.396;2023-03-21T01:11:15;2.70;78.40
67182;DHT22;54114;53.524;49.396;2023-03-21T01:13:43;2.60;78.20
67182;DHT22;54114;53.524;49.396;2023-03-21T01:16:10;2.60;78.20
67182;DHT22;54114;53.524;49.396;2023-03-21T01:18:39;2.60;78.20
67182;DHT22;54114;53.524;49.396;2023-03-21T01:21:10;2.60;78.20
67182;DHT22;54114;53.524;49.396;2023-03-21T01:23:38;2.60;78.30
67182;DHT22;54114;53.524;49.396;2023-03-21T01:26:06;2.70;78.50
67182;DHT22;54114;53.524;49.396;2023-03-21T01:28:35;2.70;78.50
67182;DHT22;54114;53.524;49.396;2023-03-21T01:31:02;2.70;78.50
67182;DHT22;54114;53.524;49.396;2023-03-21T01:33:31;2.70;78.60
67182;DHT22;54114;53.524;49.396;2023-03-21T01:35:58;2.80;78.50
67182;DHT22;54114;53.524;49.396;2023-03-21T01:38:25;2.70;78.40
67182;DHT22;54114;53.524;49.396;2023-03-21T01:40:53;2.70;78.30
67182;DHT22;54114;53.524;49.396;2023-03-21T01:43:23;2.70;78.40
67182;DHT22;54114;53.524;49.396;2023-03-21T01:46:19;2.80;78.50
67182;DHT22;54114;53.524;49.396;2023-03-21T01:48:58;2.70;78.40
67182;DHT22;54114;53.524;49.396;2023-03-21T01:51:28;2.70;78.40
67182;DHT22;54114;53.524;49.396;2023-03-21T01:53:57;2.70;78.40
67182;DHT22;54114;53.524;49.396;2023-03-21T01:56:30;2.60;78.50
67182;DHT22;54114;53.524;49.396;2023-03-21T01:59:45;2.70;78.70
67182;DHT22;54114;53.524;49.396;2023-03-21T02:01:59;2.70;78.60
67182;DHT22;54114;53.524;49.396;2023-03-21T02:04:37;2.70;78.60
67182;DHT22;54114;53.524;49.396;2023-03-21T02:07:08;2.60;78.50
67182;DHT22;54114;53.524;49.396;2023-03-21T02:09:44;2.70;78.40
67182;DHT22;54114;53.524;49.396;2023-03-21T02:12:12;2.60;78.40
67182;DHT22;54114;53.524;49.396;2023-03-21T02:14:41;2.60;78.60
67182;DHT22;54114;53.524;49.396;2023-03-21T02:20:25;2.60;78.60
67182;DHT22;54114;53.524;49.396;2023-03-21T02:26:32;2.70;78.60
67182;DHT22;54114;53.524;49.396;2023-03-21T02:32:18;2.70;78.60
67182;DHT22;54114;53.524;49.396;2023-03-21T02:40:52;2.80;78.50
67182;DHT22;54114;53.524;49.396;2023-03-21T02:43:30;2.80;78.60
67182;DHT22;54114;53.524;49.396;2023-03-21T02:51:52;2.90;78.60
67182;DHT22;54114;53.524;49.396;2023-03-21T02:54:22;3.00;78.50
67182;DHT22;54114;53.524;49.396;2023-03-21T02:56:52;3.00;78.30
67182;DHT22;54114;53.524;49.396;2023-03-21T02:59:22;3.00;78.60
67182;DHT22;54114;53.524;49.396;2023-03-21T03:01:54;3.00;78.70
67182;DHT22;54114;53.524;49.396;2023-03-21T03:04:24;3.10;78.90
67182;DHT22;54114;53.524;49.396;2023-03-21T03:07:02;3.20;78.90
67182;DHT22;54114;53.524;49.396;2023-03-21T03:12:58;3.30;78.90
67182;DHT22;54114;53.524;49.396;2023-03-21T03:18:47;3.40;79.00
67182;DHT22;54114;53.524;49.396;2023-03-21T03:21:40;3.40;79.10
67182;DHT22;54114;53.524;49.396;2023-03-21T03:24:13;3.50;79.20
67182;DHT22;54114;53.524;49.396;2023-03-21T03:26:52;3.60;79.50
67182;DHT22;54114;53.524;49.396;2023-03-21T03:29:22;3.70;79.80
67182;DHT22;54114;53.524;49.396;2023-03-21T03:31:58;3.80;79.80
67182;DHT22;54114;53.524;49.396;2023-03-21T03:34:32;3.80;79.80
67182;DHT22;54114;53.524;49.396;2023-03-21T03:37:07;3.90;79.80
67182;DHT22;54114;53.524;49.396;2023-03-21T03:42:35;4.10;80.40
67182;DHT22;54114;53.524;49.396;2023-03-21T03:45:09;4.20;80.60
67182;DHT22;54114;53.524;49.396;2023-03-21T03:47:44;4.30;80.90
67182;DHT22;54114;53.524;49.396;2023-03-21T03:53:36;4.50;81.10
67182;DHT22;54114;53.524;49.396;2023-03-21T03:56:07;4.70;81.70
67182;DHT22;54114;53.524;49.396;2023-03-21T03:58:36;4.80;81.80
67182;DHT22;54114;53.524;49.396;2023-03-21T04:01:07;4.90;81.90
67182;DHT22;54114;53.524;49.396;2023-03-21T04:03:37;5.10;82.30
67182;DHT22;54114;53.524;49.396;2023-03-21T04:06:05;5.20;82.60
67182;DHT22;54114;53.524;49.396;2023-03-21T04:08:32;5.40;82.70
67182;DHT22;54114;53.524;49.396;2023-03-21T04:11:00;5.70;82.70
67182;DHT22;54114;53.524;49.396;2023-03-21T04:13:27;5.90;82.70
67182;DHT22;54114;53.524;49.396;2023-03-21T04:15:54;6.10;82.40
67182;DHT22;54114;53.524;49.396;2023-03-21T04:18:22;6.40;81.90
67182;DHT22;54114;53.524;49.396;2023-03-21T04:20:48;6.50;81.40
67182;DHT22;54114;53.524;49.396;2023-03-21T04:23:17;6.70;81.00
67182;DHT22;54114;53.524;49.396;2023-03-21T04:25:44;7.00;80.50
67182;DHT22;54114;53.524;49.396;2023-03-21T04:28:11;7.20;79.90
67182;DHT22;54114;53.524;49.396;2023-03-21T04:30:38;7.40;79.20
67182;DHT22;54114;53.524;49.396;2023-03-21T04:33:06;7.70;78.20
67182;DHT22;54114;53.524;49.396;2023-03-21T04:35:33;7.90;77.00
67182;DHT22;54114;53.524;49.396;2023-03-21T04:38:01;8.10;76.00
67182;DHT22;54114;53.524;49.396;2023-03-21T04:40:28;8.40;75.00
67182;DHT22;54114;53.524;49.396;2023-03-21T04:42:55;8.60;73.70
67182;DHT22;54114;53.524;49.396;2023-03-21T04:45:21;8.80;72.50
67182;DHT22;54114;53.524;49.396;2023-03-21T04:47:48;9.00;71.20
67182;DHT22;54114;53.524;49.396;2023-03-21T04:50:15;9.20;70.30
67182;DHT22;54114;53.524;49.396;2023-03-21T04:52:42;9.40;69.30
67182;DHT22;54114;53.524;49.396;2023-03-21T04:55:08;9.60;68.10
67182;DHT22;54114;53.524;49.396;2023-03-21T04:57:37;9.70;67.00
67182;DHT22;54114;53.524;49.396;2023-03-21T05:00:08;9.90;66.60
67182;DHT22;54114;53.524;49.396;2023-03-21T05:02:36;10.10;65.50
67182;DHT22;54114;53.524;49.396;2023-03-21T05:05:04;10.40;64.90
67182;DHT22;54114;53.524;49.396;2023-03-21T05:07:31;10.60;64.10
67182;DHT22;54114;53.524;49.396;2023-03-21T05:09:58;10.90;63.20
67182;DHT22;54114;53.524;49.396;2023-03-21T05:12:25;11.10;62.50
67182;DHT22;54114;53.524;49.396;2023-03-21T05:14:51;11.40;61.20
67182;DHT22;54114;53.524;49.396;2023-03-21T05:17:18;11.50;59.80
67182;DHT22;54114;53.524;49.396;2023-03-21T05:19:48;11.70;59.40
67182;DHT22;54114;53.524;49.396;2023-03-21T05:22:15;11.90;59.10
67182;DHT22;54114;53.524;49.396;2023-03-21T05:24:44;12.20;58.30
67182;DHT22;54114;53.524;49.396;2023-03-21T05:27:18;12.40;57.70
67182;DHT22;54114;53.524;49.396;2023-03-21T05:30:11;12.60;57.10
67182;DHT22;54114;53.524;49.396;2023-03-21T05:32:42;13.00;56.50
67182;DHT22;54114;53.524;49.396;2023-03-21T05:35:09;13.30;55.80
67182;DHT22;54114;53.524;49.396;2023-03-21T05:37:36;13.60;54.90
67182;DHT22;54114;53.524;49.396;2023-03-21T05:40:04;13.90;53.80
67182;DHT22;54114;53.524;49.396;2023-03-21T05:42:32;14.20;53.20
67182;DHT22;54114;53.524;49.396;2023-03-21T05:44:58;14.50;52.20
67182;DHT22;54114;53.524;49.396;2023-03-21T05:47:25;15.00;51.30
67182;DHT22;54114;53.524;49.396;2023-03-21T05:49:52;15.30;50.30
67182;DHT22;54114;53.524;49.396;2023-03-21T05:52:19;15.60;49.20
67182;DHT22;54114;53.524;49.396;2023-03-21T05:54:45;16.00;48.40
67182;DHT22;54114;53.524;49.396;2023-03-21T05:57:12;16.30;47.70
67182;DHT22;54114;53.524;49.396;2023-03-21T05:59:39;16.50;47.20
67182;DHT22;54114;53.524;49.396;2023-03-21T06:02:05;16.90;46.60
67182;DHT22;54114;53.524;49.396;2023-03-21T06:04:32;17.20;45.30
67182;DHT22;54114;53.524;49.396;2023-03-21T06:06:59;17.40;44.20
67182;DHT22;54114;53.524;49.396;2023-03-21T06:09:26;17.60;43.80
67182;DHT22;54114;53.524;49.396;2023-03-21T06:11:54;17.60;43.20
67182;DHT22;54114;53.524;49.396;2023-03-21T06:14:22;17.80;43.30
67182;DHT22;54114;53.524;49.396;2023-03-21T06:16:49;17.90;42.80
67182;DHT22;54114;53.524;49.396;2023-03-21T06:19:19;18.10;42.50
67182;DHT22;54114;53.524;49.396;2023-03-21T06:21:47;18.30;41.60
67182;DHT22;54114;53.524;49.396;2023-03-21T06:24:15;18.40;41.80
67182;DHT22;54114;53.524;49.396;2023-03-21T06:26:43;18.60;41.00
67182;DHT22;54114;53.524;49.396;2023-03-21T06:29:10;18.80;40.50
67182;DHT22;54114;53.524;49.396;2023-03-21T06:31:37;18.90;39.60
67182;DHT22;54114;53.524;49.396;2023-03-21T06:34:04;18.90;39.50
67182;DHT22;54114;53.524;49.396;2023-03-21T06:36:32;19.00;39.00
67182;DHT22;54114;53.524;49.396;2023-03-21T06:38:58;19.10;39.20
67182;DHT22;54114;53.524;49.396;2023-03-21T06:41:25;19.40;39.30
67182;DHT22;54114;53.524;49.396;2023-03-21T06:43:52;19.40;38.50
67182;DHT22;54114;53.524;49.396;2023-03-21T06:46:18;19.50;38.50
67182;DHT22;54114;53.524;49.396;2023-03-21T06:48:45;19.60;38.00
67182;DHT22;54114;53.524;49.396;2023-03-21T06:51:13;19.50;37.80
67182;DHT22;54114;53.524;49.396;2023-03-21T06:53:40;19.50;37.80
67182;DHT22;54114;53.524;49.396;2023-03-21T06:56:11;19.60;37.70
67182;DHT22;54114;53.524;49.396;2023-03-21T06:58:38;19.80;37.20
67182;DHT22;54114;53.524;49.396;2023-03-21T07:01:05;19.80;37.30
67182;DHT22;54114;53.524;49.396;2023-03-21T07:03:33;19.90;36.90
67182;DHT22;54114;53.524;49.396;2023-03-21T07:06:07;20.00;36.50
67182;DHT22;54114;53.524;49.396;2023-03-21T07:08:39;20.00;36.50
67182;DHT22;54114;53.524;49.396;2023-03-21T07:11:07;20.10;36.60
67182;DHT22;54114;53.524;49.396;2023-03-21T07:13:34;20.10;36.10
67182;DHT22;54114;53.524;49.396;2023-03-21T07:16:01;20.00;36.00
67182;DHT22;54114;53.524;49.396;2023-03-21T07:18:28;19.90;36.00
67182;DHT22;54114;53.524;49.396;2023-03-21T07:20:55;20.00;36.10
67182;DHT22;54114;53.524;49.396;2023-03-21T07:23:24;20.10;35.80
67182;DHT22;54114;53.524;49.396;2023-03-21T07:25:52;20.00;35.70
67182;DHT22;54114;53.524;49.396;2023-03-21T07:28:20;20.00;35.80
67182;DHT22;54114;53.524;49.396;2023-03-21T07:30:53;20.10;35.60
67182;DHT22;54114;53.524;49.396;2023-03-21T07:33:21;20.10;35.40
67182;DHT22;54114;53.524;49.396;2023-03-21T07:35:50;20.00;35.30
67182;DHT22;54114;53.524;49.396;2023-03-21T07:38:17;20.00;35.20
67182;DHT22;54114;53.524;49.396;2023-03-21T07:40:46;19.90;35.30
67182;DHT22;54114;53.524;49.396;2023-03-21T07:43:14;20.00;35.70
67182;DHT22;54114;53.524;49.396;2023-03-21T07:45:41;20.20;35.30
67182;DHT22;54114;53.524;49.396;2023-03-21T07:48:09;20.40;35.20
67182;DHT22;54114;53.524;49.396;2023-03-21T07:50:38;20.50;34.90
67182;DHT22;54114;53.524;49.396;2023-03-21T07:53:06;20.40;34.70
67182;DHT22;54114;53.524;49.396;2023-03-21T07:55:33;20.40;34.60
67182;DHT22;54114;53.524;49.396;2023-03-21T07:58:03;20.40;34.30
67182;DHT22;54114;53.524;49.396;2023-03-21T08:00:30;20.40;34.40
67182;DHT22;54114;53.524;49.396;2023-03-21T08:02:58;20.60;34.40
67182;DHT22;54114;53.524;49.396;2023-03-21T08:05:28;20.70;33.80
67182;DHT22;54114;53.524;49.396;2023-03-21T08:07:56;20.60;33.80
67182;DHT22;54114;53.524;49.396;2023-03-21T08:10:23;20.50;33.80
67182;DHT22;54114;53.524;49.396;2023-03-21T08:12:50;20.50;33.70
67182;DHT22;54114;53.524;49.396;2023-03-21T08:15:17;20.40;33.80
67182;DHT22;54114;53.524;49.396;2023-03-21T08:17:44;20.30;34.00
67182;DHT22;54114;53.524;49.396;2023-03-21T08:20:13;20.30;34.20
67182;DHT22;54114;53.524;49.396;2023-03-21T08:22:42;20.40;34.10
67182;DHT22;54114;53.524;49.396;2023-03-21T08:25:11;20.60;33.60
67182;DHT22;54114;53.524;49.396;2023-03-21T08:27:40;20.80;33.40
67182;DHT22;54114;53.524;49.396;2023-03-21T08:30:11;20.70;33.20
67182;DHT22;54114;53.524;49.396;2023-03-21T08:32:39;20.80;33.50
67182;DHT22;54114;53.524;49.396;2023-03-21T08:35:08;20.80;33.30
67182;DHT22;54114;53.524;49.396;2023-03-21T08:37:37;20.80;33.20
67182;DHT22;54114;53.524;49.396;2023-03-21T08:40:08;20.80;33.20
67182;DHT22;54114;53.524;49.396;2023-03-21T08:42:41;20.70;33.20
67182;DHT22;54114;53.524;49.396;2023-03-21T08:45:09;20.60;33.40
67182;DHT22;54114;53.524;49.396;2023-03-21T08:47:37;20.60;33.70
67182;DHT22;54114;53.524;49.396;2023-03-21T08:50:06;20.70;33.60
67182;DHT22;54114;53.524;49.396;2023-03-21T08:52:33;20.90;33.40
67182;DHT22;54114;53.524;49.396;2023-03-21T08:55:00;21.20;33.20
67182;DHT22;54114;53.524;49.396;2023-03-21T08:57:28;21.50;32.80
67182;DHT22;54114;53.524;49.396;2023-03-21T08:59:55;21.60;32.50
67182;DHT22;54114;53.524;49.396;2023-03-21T09:02:22;21.90;32.50
67182;DHT22;54114;53.524;49.396;2023-03-21T09:04:49;22.10;32.30
67182;DHT22;54114;53.524;49.396;2023-03-21T09:07:19;22.30;31.70
67182;DHT22;54114;53.524;49.396;2023-03-21T09:09:47;22.40;31.90
67182;DHT22;54114;53.524;49.396;2023-03-21T09:12:17;22.50;31.30
67182;DHT22;54114;53.524;49.396;2023-03-21T09:14:44;22.60;31.30
67182;DHT22;54114;53.524;49.396;2023-03-21T09:17:10;22.80;31.40
67182;DHT22;54114;53.524;49.396;2023-03-21T09:19:37;22.90;31.00
67182;DHT22;54114;53.524;49.396;2023-03-21T09:22:05;22.80;31.00
67182;DHT22;54114;53.524;49.396;2023-03-21T09:24:35;22.80;31.10
67182;DHT22;54114;53.524;49.396;2023-03-21T09:27:02;22.90;31.10
67182;DHT22;54114;53.524;49.396;2023-03-21T09:29:29;23.10;31.10
67182;DHT22;54114;53.524;49.396;2023-03-21T09:31:57;23.40;30.60
67182;DHT22;54114;53.524;49.396;2023-03-21T09:34:25;23.40;30.40
67182;DHT22;54114;53.524;49.396;2023-03-21T09:36:52;23.40;30.40
67182;DHT22;54114;53.524;49.396;2023-03-21T09:39:22;23.50;30.50
67182;DHT22;54114;53.524;49.396;2023-03-21T09:45:15;23.70;30.40
67182;DHT22;54114;53.524;49.396;2023-03-21T09:47:47;23.60;30.20
67182;DHT22;54114;53.524;49.396;2023-03-21T09:50:24;23.60;30.50
67182;DHT22;54114;53.524;49.396;2023-03-21T09:53:00;23.70;30.40
67182;DHT22;54114;53.524;49.396;2023-03-21T09:55:35;23.90;30.30
67182;DHT22;54114;53.524;49.396;2023-03-21T10:00:58;24.20;30.00
67182;DHT22;54114;53.524;49.396;2023-03-21T10:03:32;23.90;29.70
67182;DHT22;54114;53.524;49.396;2023-03-21T10:06:13;23.60;30.10
67182;DHT22;54114;53.524;49.396;2023-03-21T10:08:45;23.70;30.20
67182;DHT22;54114;53.524;49.396;2023-03-21T10:11:40;23.70;30.30
67182;DHT22;54114;53.524;49.396;2023-03-21T10:14:19;23.80;30.20
67182;DHT22;54114;53.524;49.396;2023-03-21T10:17:26;23.60;30.10
67182;DHT22;54114;53.524;49.396;2023-03-21T10:20:18;23.40;30.60
67182;DHT22;54114;53.524;49.396;2023-03-21T10:22:48;23.30;30.80
67182;DHT22;54114;53.524;49.396;2023-03-21T10:25:19;23.40;30.90
67182;DHT22;54114;53.524;49.396;2023-03-21T10:27:50;23.60;30.80
67182;DHT22;54114;53.524;49.396;2023-03-21T10:30:43;23.70;30.70
67182;DHT22;54114;53.524;49.396;2023-03-21T10:33:17;23.70;30.60
67182;DHT22;54114;53.524;49.396;2023-03-21T10:35:58;23.60;30.70
67182;DHT22;54114;53.524;49.396;2023-03-21T10:38:26;23.70;30.90
67182;DHT22;54114;53.524;49.396;2023-03-21T10:40:53;23.70;30.70
67182;DHT22;54114;53.524;49.396;2023-03-21T10:45:54;23.80;30.70
67182;DHT22;54114;53.524;49.396;2023-03-21T10:48:22;23.80;30.50
67182;DHT22;54114;53.524;49.396;2023-03-21T10:50:52;23.80;30.60
67182;DHT22;54114;53.524;49.396;2023-03-21T10:53:38;23.70;30.40
67182;DHT22;54114;53.524;49.396;2023-03-21T10:56:08;23.60;30.70
67182;DHT22;54114;53.524;49.396;2023-03-21T10:58:40;23.60;30.90
67182;DHT22;54114;53.524;49.396;2023-03-21T11:01:17;23.50;30.90
67182;DHT22;54114;53.524;49.396;2023-03-21T11:04:16;23.50;30.40
67182;DHT22;54114;53.524;49.396;2023-03-21T11:07:08;23.40;30.60
67182;DHT22;54114;53.524;49.396;2023-03-21T11:09:48;23.40;31.70
67182;DHT22;54114;53.524;49.396;2023-03-21T11:12:18;23.20;30.70
67182;DHT22;54114;53.524;49.396;2023-03-21T11:14:54;23.00;30.80
67182;DHT22;54114;53.524;49.396;2023-03-21T11:17:29;22.80;31.00
67182;DHT22;54114;53.524;49.396;2023-03-21T11:20:04;22.80;31.00
67182;DHT22;54114;53.524;49.396;2023-03-21T11:22:39;22.90;31.00
67182;DHT22;54114;53.524;49.396;2023-03-21T11:25:17;23.00;30.60
67182;DHT22;54114;53.524;49.396;2023-03-21T11:27:54;23.10;30.70
67182;DHT22;54114;53.524;49.396;2023-03-21T11:30:24;23.20;30.40
67182;DHT22;54114;53.524;49.396;2023-03-21T11:32:57;23.30;30.40
67182;DHT22;54114;53.524;49.396;2023-03-21T11:35:37;23.50;30.20
67182;DHT22;54114;53.524;49.396;2023-03-21T11:38:06;23.60;29.90
67182;DHT22;54114;53.524;49.396;2023-03-21T11:40:55;23.60;29.80
67182;DHT22;54114;53.524;49.396;2023-03-21T11:43:31;23.50;29.60
67182;DHT22;54114;53.524;49.396;2023-03-21T11:46:05;23.30;29.60
67182;DHT22;54114;53.524;49.396;2023-03-21T11:48:42;23.20;29.80
67182;DHT22;54114;53.524;49.396;2023-03-21T11:51:39;23.20;29.60
67182;DHT22;54114;53.524;49.396;2023-03-21T12:00:24;22.60;30.00
67182;DHT22;54114;53.524;49.396;2023-03-21T12:05:46;22.40;30.20
67182;DHT22;54114;53.524;49.396;2023-03-21T12:14:24;21.70;30.90
67182;DHT22;54114;53.524;49.396;2023-03-21T12:21:00;21.40;31.40
67182;DHT22;54114;53.524;49.396;2023-03-21T12:28:58;21.40;31.80
67182;DHT22;54114;53.524;49.396;2023-03-21T12:37:46;21.60;31.30
67182;DHT22;54114;53.524;49.396;2023-03-21T12:43:41;20.90;31.80
67182;DHT22;54114;53.524;49.396;2023-03-21T12:49:25;20.70;32.40
67182;DHT22;54114;53.524;49.396;2023-03-21T12:51:58;20.60;32.40
67182;DHT22;54114;53.524;49.396;2023-03-21T12:54:38;20.40;32.80
67182;DHT22;54114;53.524;49.396;2023-03-21T12:57:18;20.30;33.00
67182;DHT22;54114;53.524;49.396;2023-03-21T12:59:54;20.30;33.30
67182;DHT22;54114;53.524;49.396;2023-03-21T13:02:31;20.40;33.30
67182;DHT22;54114;53.524;49.396;2023-03-21T13:11:19;20.20;34.00
67182;DHT22;54114;53.524;49.396;2023-03-21T13:16:47;20.20;34.30
67182;DHT22;54114;53.524;49.396;2023-03-21T13:25:18;19.90;35.20
67182;DHT22;54114;53.524;49.396;2023-03-21T13:28:02;19.70;35.40
67182;DHT22;54114;53.524;49.396;2023-03-21T13:30:30;19.60;35.80
67182;DHT22;54114;53.524;49.396;2023-03-21T13:33:09;19.50;36.00
67182;DHT22;54114;53.524;49.396;2023-03-21T13:35:43;19.50;36.20
67182;DHT22;54114;53.524;49.396;2023-03-21T13:38:20;19.40;36.40
67182;DHT22;54114;53.524;49.396;2023-03-21T13:40:58;19.30;36.50
67182;DHT22;54114;53.524;49.396;2023-03-21T13:43:52;19.30;36.70
67182;DHT22;54114;53.524;49.396;2023-03-21T13:48:57;19.10;37.20
67182;DHT22;54114;53.524;49.396;2023-03-21T14:02:33;18.90;37.60
67182;DHT22;54114;53.524;49.396;2023-03-21T14:05:05;18.80;37.60
67182;DHT22;54114;53.524;49.396;2023-03-21T14:07:45;18.70;37.70
67182;DHT22;54114;53.524;49.396;2023-03-21T14:12:48;18.40;38.20
67182;DHT22;54114;53.524;49.396;2023-03-21T14:15:19;18.20;38.10
67182;DHT22;54114;53.524;49.396;2023-03-21T14:17:54;18.10;38.30
67182;DHT22;54114;53.524;49.396;2023-03-21T14:20:36;17.90;38.30
67182;DHT22;54114;53.524;49.396;2023-03-21T14:23:12;17.70;38.60
67182;DHT22;54114;53.524;49.396;2023-03-21T14:25:40;17.60;38.90
67182;DHT22;54114;53.524;49.396;2023-03-21T14:28:15;17.40;39.10
67182;DHT22;54114;53.524;49.396;2023-03-21T14:30:54;17.20;39.30
67182;DHT22;54114;53.524;49.396;2023-03-21T14:33:40;16.90;39.40
67182;DHT22;54114;53.524;49.396;2023-03-21T14:36:19;16.70;39.60
67182;DHT22;54114;53.524;49.396;2023-03-21T14:39:02;16.50;39.90
67182;DHT22;54114;53.524;49.396;2023-03-21T14:41:34;16.30;40.00
67182;DHT22;54114;53.524;49.396;2023-03-21T14:44:17;16.20;40.20
67182;DHT22;54114;53.524;49.396;2023-03-21T14:47:06;16.10;40.30
67182;DHT22;54114;53.524;49.396;2023-03-21T14:49:35;15.90;40.30
67182;DHT22;54114;53.524;49.396;2023-03-21T14:52:24;15.80;40.50
67182;DHT22;54114;53.524;49.396;2023-03-21T14:54:53;15.60;40.50
67182;DHT22;54114;53.524;49.396;2023-03-21T14:57:27;15.50;40.70
67182;DHT22;54114;53.524;49.396;2023-03-21T14:59:59;15.40;40.80
67182;DHT22;54114;53.524;49.396;2023-03-21T15:02:45;15.40;40.90
67182;DHT22;54114;53.524;49.396;2023-03-21T15:07:54;15.10;41.00
67182;DHT22;54114;53.524;49.396;2023-03-21T15:10:24;15.00;41.10
67182;DHT22;54114;53.524;49.396;2023-03-21T15:12:57;15.00;41.20
67182;DHT22;54114;53.524;49.396;2023-03-21T15:15:26;14.90;41.40
67182;DHT22;54114;53.524;49.396;2023-03-21T15:17:57;14.80;41.50
67182;DHT22;54114;53.524;49.396;2023-03-21T15:20:31;14.70;41.70
67182;DHT22;54114;53.524;49.396;2023-03-21T15:23:02;14.70;41.90
67182;DHT22;54114;53.524;49.396;2023-03-21T15:25:34;14.50;42.00
67182;DHT22;54114;53.524;49.396;2023-03-21T15:28:02;14.40;42.20
67182;DHT22;54114;53.524;49.396;2023-03-21T15:30:30;14.30;42.40
67182;DHT22;54114;53.524;49.396;2023-03-21T15:33:06;14.30;42.60
67182;DHT22;54114;53.524;49.396;2023-03-21T15:35:37;14.20;42.80
67182;DHT22;54114;53.524;49.396;2023-03-21T15:38:06;14.10;42.70
67182;DHT22;54114;53.524;49.396;2023-03-21T15:40:34;14.00;43.00
67182;DHT22;54114;53.524;49.396;2023-03-21T15:43:18;13.90;43.30
67182;DHT22;54114;53.524;49.396;2023-03-21T15:45:54;13.90;43.70
67182;DHT22;54114;53.524;49.396;2023-03-21T15:48:25;13.80;43.80
67182;DHT22;54114;53.524;49.396;2023-03-21T15:51:02;13.80;43.90
67182;DHT22;54114;53.524;49.396;2023-03-21T15:53:36;13.80;44.10
67182;DHT22;54114;53.524;49.396;2023-03-21T15:56:04;13.80;44.10
67182;DHT22;54114;53.524;49.396;2023-03-21T15:58:41;13.80;44.20
67182;DHT22;54114;53.524;49.396;2023-03-21T16:01:18;13.80;44.40
67182;DHT22;54114;53.524;49.396;2023-03-21T16:03:54;13.80;44.50
67182;DHT22;54114;53.524;49.396;2023-03-21T16:06:35;13.80;44.70
67182;DHT22;54114;53.524;49.396;2023-03-21T16:09:14;13.80;45.00
67182;DHT22;54114;53.524;49.396;2023-03-21T16:11:53;13.80;45.40
67182;DHT22;54114;53.524;49.396;2023-03-21T16:14:22;13.70;45.70
67182;DHT22;54114;53.524;49.396;2023-03-21T16:16:49;13.70;46.10
67182;DHT22;54114;53.524;49.396;2023-03-21T16:19:16;13.70;46.40
67182;DHT22;54114;53.524;49.396;2023-03-21T16:21:43;13.70;46.80
67182;DHT22;54114;53.524;49.396;2023-03-21T16:24:11;13.60;47.20
67182;DHT22;54114;53.524;49.396;2023-03-21T16:26:43;13.50;47.40
67182;DHT22;54114;53.524;49.396;2023-03-21T16:29:15;13.50;47.70
67182;DHT22;54114;53.524;49.396;2023-03-21T16:31:43;13.40;47.80
67182;DHT22;54114;53.524;49.396;2023-03-21T16:34:12;13.40;47.90
67182;DHT22;54114;53.524;49.396;2023-03-21T16:36:40;13.30;48.10
67182;DHT22;54114;53.524;49.396;2023-03-21T16:39:20;13.30;48.20
67182;DHT22;54114;53.524;49.396;2023-03-21T16:41:47;13.20;48.30
67182;DHT22;54114;53.524;49.396;2023-03-21T16:44:16;13.30;48.30
67182;DHT22;54114;53.524;49.396;2023-03-21T16:46:44;13.20;48.50
67182;DHT22;54114;53.524;49.396;2023-03-21T16:49:26;13.20;48.60
67182;DHT22;54114;53.524;49.396;2023-03-21T16:51:54;13.10;48.80
67182;DHT22;54114;53.524;49.396;2023-03-21T16:54:22;13.10;48.90
67182;DHT22;54114;53.524;49.396;2023-03-21T16:56:52;13.10;48.90
67182;DHT22;54114;53.524;49.396;2023-03-21T16:59:20;13.00;49.00
67182;DHT22;54114;53.524;49.396;2023-03-21T17:01:47;13.00;49.10
67182;DHT22;54114;53.524;49.396;2023-03-21T17:04:15;13.00;49.30
67182;DHT22;54114;53.524;49.396;2023-03-21T17:06:45;12.90;49.40
67182;DHT22;54114;53.524;49.396;2023-03-21T17:09:15;12.90;49.60
67182;DHT22;54114;53.524;49.396;2023-03-21T17:11:44;12.80;49.70
67182;DHT22;54114;53.524;49.396;2023-03-21T17:14:12;12.80;50.00
67182;DHT22;54114;53.524;49.396;2023-03-21T17:16:41;12.80;50.20
67182;DHT22;54114;53.524;49.396;2023-03-21T17:19:20;12.70;50.30
67182;DHT22;54114;53.524;49.396;2023-03-21T17:21:52;12.70;50.50
67182;DHT22;54114;53.524;49.396;2023-03-21T17:24:20;12.60;50.60
67182;DHT22;54114;53.524;49.396;2023-03-21T17:26:48;12.60;50.70
67182;DHT22;54114;53.524;49.396;2023-03-21T17:29:15;12.60;50.80
67182;DHT22;54114;53.524;49.396;2023-03-21T17:31:42;12.60;50.70
67182;DHT22;54114;53.524;49.396;2023-03-21T17:34:12;12.60;50.70
67182;DHT22;54114;53.524;49.396;2023-03-21T17:36:40;12.60;50.60
67182;DHT22;54114;53.524;49.396;2023-03-21T17:39:11;12.60;50.60
67182;DHT22;54114;53.524;49.396;2023-03-21T17:41:42;12.60;50.70